createdAt,value
2019-01-10T00:04:51.550Z,100465.00
2019-01-10T00:09:52.798Z,100479.00
2019-01-10T00:14:54.049Z,100479.00
2019-01-10T00:19:55.286Z,100482.00
2019-01-10T00:24:56.537Z,100482.00
2019-01-10T00:29:57.784Z,100501.00
2019-01-10T00:34:59.428Z,100498.00
2019-01-10T00:40:00.772Z,100502.00
2019-01-10T00:45:05.734Z,100519.00
2019-01-10T00:50:14.240Z,100528.00
2019-01-10T00:55:15.863Z,100524.00
2019-01-10T01:00:21.188Z,100532.00
2019-01-10T01:05:22.946Z,100533.00
2019-01-10T01:10:26.412Z,100534.00
2019-01-10T01:15:27.666Z,100543.00
2019-01-10T01:20:29.129Z,100557.00
2019-01-10T01:25:30.377Z,100553.00
2019-01-10T01:30:31.921Z,100563.00
2019-01-10T01:35:33.135Z,100565.00
2019-01-10T01:40:34.383Z,100560.00
2019-01-10T01:45:35.624Z,100569.00
2019-01-10T01:50:36.895Z,100570.00
2019-01-10T01:55:38.321Z,100573.00
2019-01-10T02:00:39.753Z,100570.00
2019-01-10T02:05:41.187Z,100577.00
2019-01-10T02:10:42.396Z,100595.00
2019-01-10T02:15:43.631Z,100596.00
2019-01-10T02:20:44.967Z,100606.00
2019-01-10T02:25:46.192Z,100613.00
2019-01-10T02:30:47.435Z,100619.00
2019-01-10T02:35:48.665Z,100613.00
2019-01-10T02:40:49.884Z,100627.00
2019-01-10T02:45:51.120Z,100620.00
2019-01-10T02:50:52.377Z,100645.00
2019-01-10T02:55:53.592Z,100620.00
2019-01-10T03:00:54.839Z,100639.00
2019-01-10T03:05:56.188Z,100631.00
2019-01-10T03:10:57.408Z,100634.00
2019-01-10T03:15:58.735Z,100633.00
2019-01-10T03:20:59.957Z,100629.00
2019-01-10T03:26:01.166Z,100635.00
2019-01-10T03:31:02.870Z,100619.00
2019-01-10T03:36:04.405Z,100617.00
2019-01-10T03:41:05.620Z,100618.00
2019-01-10T03:46:06.875Z,100625.00
2019-01-10T03:51:08.108Z,100633.00
2019-01-10T03:56:09.335Z,100639.00
2019-01-10T04:01:10.571Z,100638.00
2019-01-10T04:06:11.823Z,100637.00
2019-01-10T04:11:13.056Z,100638.00
2019-01-10T04:16:14.318Z,100638.00
2019-01-10T04:21:17.523Z,100644.00
2019-01-10T04:26:18.722Z,100640.00
2019-01-10T04:31:19.977Z,100650.00
2019-01-10T04:36:21.202Z,100647.00
2019-01-10T04:41:22.468Z,100655.00
2019-01-10T04:46:23.701Z,100659.00
2019-01-10T04:51:24.940Z,100659.00
2019-01-10T04:56:26.175Z,100674.00
2019-01-10T05:01:27.421Z,100665.00
2019-01-10T05:06:28.644Z,100668.00
2019-01-10T05:11:29.880Z,100668.00
2019-01-10T05:16:31.112Z,100666.00
2019-01-10T05:21:32.436Z,100671.00
2019-01-10T05:26:33.683Z,100671.00
2019-01-10T05:31:34.930Z,100676.00
2019-01-10T05:36:36.155Z,100673.00
2019-01-10T05:41:37.388Z,100681.00
2019-01-10T05:46:48.120Z,100686.00
2019-01-10T05:51:41.768Z,100685.00
2019-01-10T05:56:43.029Z,100683.00
2019-01-10T06:01:44.259Z,100689.00
2019-01-10T06:06:45.517Z,100692.00
2019-01-10T06:11:46.761Z,100696.00
2019-01-10T06:16:48.000Z,100701.00
2019-01-10T06:21:49.355Z,100706.00
2019-01-10T06:26:50.590Z,100716.00
2019-01-10T06:31:51.833Z,100719.00
2019-01-10T06:36:53.064Z,100728.00
2019-01-10T06:41:54.296Z,100733.00
2019-01-10T06:46:55.535Z,100729.00
2019-01-10T06:51:56.768Z,100740.00
2019-01-10T06:56:58.025Z,100744.00
2019-01-10T07:01:59.362Z,100747.00
2019-01-10T07:07:00.589Z,100747.00
2019-01-10T07:12:01.950Z,100763.00
2019-01-10T07:17:03.209Z,100762.00
2019-01-10T07:22:04.455Z,100778.00
2019-01-10T07:27:05.755Z,100780.00
2019-01-10T07:32:07.174Z,100790.00
2019-01-10T07:37:12.920Z,100795.00
2019-01-10T07:42:11.612Z,100804.00
2019-01-10T07:47:12.835Z,100808.00
2019-01-10T07:52:14.082Z,100811.00
2019-01-10T07:57:15.336Z,100817.00
2019-01-10T08:02:16.565Z,100824.00
2019-01-10T08:07:17.814Z,100831.00
2019-01-10T08:12:19.074Z,100823.00
2019-01-10T08:17:20.336Z,100837.00
2019-01-10T08:22:27.701Z,100838.00
2019-01-10T08:27:24.756Z,100856.00
2019-01-10T08:32:26.027Z,100863.00
2019-01-10T08:37:27.269Z,100862.00
2019-01-10T08:42:28.510Z,100879.00
2019-01-10T08:47:29.748Z,100874.00
2019-01-10T08:52:31.013Z,100874.00
2019-01-10T08:57:32.351Z,100876.00
2019-01-10T09:02:33.599Z,100883.00
2019-01-10T09:07:34.955Z,100886.00
2019-01-10T09:12:36.313Z,100880.00
2019-01-10T09:17:37.676Z,100885.00
2019-01-10T09:22:38.954Z,100893.00
2019-01-10T09:27:40.610Z,100891.00
2019-01-10T09:32:42.164Z,100895.00
2019-01-10T09:37:43.654Z,100894.00
2019-01-10T09:42:45.835Z,100897.00
2019-01-10T09:47:47.277Z,100904.00
2019-01-10T09:52:49.015Z,100906.00
2019-01-10T09:57:50.252Z,100909.00
2019-01-10T10:02:51.723Z,100916.00
2019-01-10T10:07:53.153Z,100918.00
2019-01-10T10:12:54.416Z,100918.00
2019-01-10T10:17:55.767Z,100917.00
2019-01-10T10:22:57.137Z,100924.00
2019-01-10T10:27:58.540Z,100920.00
2019-01-10T10:32:59.801Z,100908.00
2019-01-10T10:38:01.177Z,100918.00
2019-01-10T10:43:02.927Z,100920.00
2019-01-10T10:48:04.183Z,100914.00
2019-01-10T10:53:05.673Z,100926.00
2019-01-10T10:58:07.130Z,100919.00
2019-01-10T11:03:08.490Z,100921.00
2019-01-10T11:08:09.765Z,100917.00
2019-01-10T11:13:11.025Z,100900.00
2019-01-10T11:18:12.369Z,100906.00
2019-01-10T11:23:13.615Z,100917.00
2019-01-10T11:28:14.869Z,100915.00
2019-01-10T11:33:16.138Z,100916.00
2019-01-10T11:38:17.372Z,100921.00
2019-01-10T11:43:18.641Z,100905.00
2019-01-10T11:48:19.885Z,100913.00
2019-01-10T11:53:21.120Z,100916.00
2019-01-10T11:58:22.374Z,100912.00
2019-01-10T12:03:23.615Z,100914.00
2019-01-10T12:08:24.842Z,100914.00
2019-01-10T12:13:26.080Z,100918.00
2019-01-10T12:18:27.346Z,100907.00
2019-01-10T12:23:28.597Z,100907.00
2019-01-10T12:28:29.850Z,100913.00
2019-01-10T12:33:31.105Z,100909.00
2019-01-10T12:38:32.449Z,100909.00
2019-01-10T12:43:33.808Z,100906.00
2019-01-10T12:48:35.062Z,100899.00
2019-01-10T12:53:36.291Z,100906.00
2019-01-10T12:58:37.542Z,100909.00
2019-01-10T13:03:39.542Z,100901.00
2019-01-10T13:08:41.638Z,100891.00
2019-01-10T13:13:44.736Z,100912.00
2019-01-10T13:18:46.983Z,100917.00
2019-01-10T13:23:48.737Z,100913.00
2019-01-10T13:28:51.567Z,100919.00
2019-01-10T13:33:53.711Z,100924.00
2019-01-10T13:38:56.528Z,100928.00
2019-01-10T13:43:58.839Z,100922.00
2019-01-10T13:49:00.810Z,100930.00
2019-01-10T13:54:03.625Z,100933.00
2019-01-10T13:59:05.885Z,100940.00
2019-01-10T14:04:07.876Z,100938.00
2019-01-10T14:09:10.326Z,100938.00
2019-01-10T14:14:12.528Z,100952.00
2019-01-10T14:19:14.419Z,100954.00
2019-01-10T14:24:16.431Z,100954.00
2019-01-10T14:29:18.278Z,100951.00
2019-01-10T14:34:20.071Z,100950.00
2019-01-10T14:39:21.933Z,100954.00
2019-01-10T14:44:23.739Z,100959.00
2019-01-10T14:49:25.666Z,100962.00
2019-01-10T14:54:28.383Z,100960.00
2019-01-10T14:59:30.496Z,100973.00
2019-01-10T15:04:32.292Z,100980.00
2019-01-10T15:09:34.294Z,100975.00
2019-01-10T15:14:36.508Z,100971.00
2019-01-10T15:25:14.703Z,100982.00
2019-01-10T15:30:25.395Z,100986.00
2019-01-10T15:35:26.823Z,100992.00
2019-01-10T15:40:30.180Z,100991.00
2019-01-10T15:45:31.540Z,101003.00
2019-01-10T15:50:32.760Z,100994.00
2019-01-10T15:55:34.216Z,100998.00
2019-01-10T16:00:35.568Z,101003.00
2019-01-10T16:05:36.854Z,101004.00
2019-01-10T16:10:38.091Z,101010.00
2019-01-10T16:15:39.347Z,101015.00
2019-01-10T16:20:41.421Z,101015.00
2019-01-10T16:25:43.330Z,101018.00
2019-01-10T16:30:45.004Z,101014.00
2019-01-10T16:35:47.549Z,101029.00
2019-01-10T16:40:50.233Z,101028.00
2019-01-10T16:45:52.042Z,101029.00
2019-01-10T16:50:54.095Z,101028.00
2019-01-10T16:55:56.092Z,101028.00
2019-01-10T17:00:58.658Z,101025.00
2019-01-10T17:06:00.683Z,101022.00
2019-01-10T17:11:02.538Z,101033.00
2019-01-10T17:16:08.306Z,101040.00
2019-01-10T17:21:10.199Z,101036.00
2019-01-10T17:26:12.034Z,101031.00
2019-01-10T17:31:14.264Z,101014.00
2019-01-10T17:36:18.557Z,101014.00
2019-01-10T17:41:20.223Z,101018.00
2019-01-10T17:46:22.107Z,101031.00
2019-01-10T17:51:24.094Z,101027.00
2019-01-10T17:56:26.347Z,101034.00
2019-01-10T18:01:28.187Z,101044.00
2019-01-10T18:06:30.217Z,101045.00
2019-01-10T18:11:32.003Z,101048.00
2019-01-10T18:16:34.079Z,101054.00
2019-01-10T18:21:35.967Z,101063.00
2019-01-10T18:26:38.280Z,101049.00
2019-01-10T18:31:40.114Z,101048.00
2019-01-10T18:36:41.816Z,101055.00
2019-01-10T18:41:43.775Z,101062.00
2019-01-10T18:46:45.628Z,101065.00
2019-01-10T18:51:47.625Z,101067.00
2019-01-10T18:56:49.301Z,101064.00
2019-01-10T19:01:51.070Z,101063.00
2019-01-10T19:06:53.072Z,101063.00
2019-01-10T19:11:54.904Z,101058.00
2019-01-10T19:16:56.814Z,101060.00
2019-01-10T19:21:58.829Z,101068.00
2019-01-10T19:27:00.646Z,101065.00
2019-01-10T19:32:02.387Z,101056.00
2019-01-10T19:37:04.326Z,101071.00
2019-01-10T19:42:06.219Z,101066.00
2019-01-10T19:47:08.356Z,101061.00
2019-01-10T19:52:09.965Z,101054.00
2019-01-10T19:57:12.144Z,101071.00
2019-01-10T20:02:14.188Z,101075.00
2019-01-10T20:07:16.207Z,101086.00
2019-01-10T20:12:18.153Z,101084.00
2019-01-10T20:17:19.914Z,101090.00
2019-01-10T20:22:21.964Z,101077.00
2019-01-10T20:27:23.984Z,101083.00
2019-01-10T20:32:27.708Z,101083.00
2019-01-10T20:37:29.657Z,101084.00
2019-01-10T20:42:31.945Z,101093.00
2019-01-10T20:47:34.206Z,101087.00
2019-01-10T20:52:36.207Z,101108.00
2019-01-10T20:57:38.254Z,101110.00
2019-01-10T21:02:42.933Z,101080.00
2019-01-10T21:07:46.694Z,101104.00
2019-01-10T21:12:49.335Z,101107.00
2019-01-10T21:17:51.524Z,101111.00
2019-01-10T21:22:53.229Z,101102.00
2019-01-10T21:27:54.484Z,101100.00
2019-01-10T21:32:55.745Z,101115.00
2019-01-10T21:37:57.237Z,101126.00
2019-01-10T21:42:58.494Z,101118.00
2019-01-10T21:47:59.749Z,101115.00
2019-01-10T21:53:01.006Z,101113.00
2019-01-10T21:58:04.068Z,101102.00
2019-01-10T22:03:05.533Z,101111.00
2019-01-10T22:08:07.473Z,101100.00
2019-01-10T22:13:08.716Z,101087.00
2019-01-10T22:18:09.958Z,101092.00
2019-01-10T22:23:11.326Z,101090.00
2019-01-10T22:28:12.573Z,101093.00
2019-01-10T22:33:14.040Z,101090.00
2019-01-10T22:38:15.315Z,101090.00
2019-01-10T22:43:16.593Z,101079.00
2019-01-10T22:48:17.866Z,101091.00
2019-01-10T22:53:19.221Z,101085.00
2019-01-10T22:58:20.496Z,101086.00
2019-01-10T23:03:21.979Z,101074.00
2019-01-10T23:08:23.448Z,101064.00
2019-01-10T23:13:24.813Z,101074.00
2019-01-10T23:18:26.086Z,101068.00
2019-01-10T23:23:27.449Z,101070.00
2019-01-10T23:28:28.712Z,101060.00
2019-01-10T23:33:29.976Z,101063.00
2019-01-10T23:38:31.273Z,101053.00
2019-01-10T23:43:32.507Z,101067.00
2019-01-10T23:48:33.768Z,101063.00
2019-01-10T23:53:35.220Z,101058.00
2019-01-10T23:58:36.477Z,101071.00
